sensor_id;sensor_type;location;lat;lon;timestamp;temperature;humidity
26037;DHT22;13810;48.376;10.944;2022-11-15T00:00:03;3.00;99.90
26037;DHT22;13810;48.376;10.944;2022-11-15T00:00:34;3.00;99.90
26037;DHT22;13810;48.376;10.944;2022-11-15T00:01:16;3.00;99.90
26037;DHT22;13810;48.376;10.944;2022-11-15T00:01:47;3.00;99.90
26037;DHT22;13810;48.376;10.944;2022-11-15T00:02:18;3.00;99.90
26037;DHT22;13810;48.376;10.944;2022-11-15T00:02:48;3.00;99.90
26037;DHT22;13810;48.376;10.944;2022-11-15T00:03:23;3.00;99.90
26037;DHT22;13810;48.376;10.944;2022-11-15T00:03:54;3.00;99.90
26037;DHT22;13810;48.376;10.944;2022-11-15T00:04:25;3.00;99.90
26037;DHT22;13810;48.376;10.944;2022-11-15T00:04:55;3.00;99.90
26037;DHT22;13810;48.376;10.944;2022-11-15T00:05:26;3.00;99.90
26037;DHT22;13810;48.376;10.944;2022-11-15T00:06:02;3.00;99.90
26037;DHT22;13810;48.376;10.944;2022-11-15T00:06:33;3.00;99.90
26037;DHT22;13810;48.376;10.944;2022-11-15T00:07:04;3.00;99.90
26037;DHT22;13810;48.376;10.944;2022-11-15T00:07:34;3.00;99.90
26037;DHT22;13810;48.376;10.944;2022-11-15T00:08:05;3.00;99.90
26037;DHT22;13810;48.376;10.944;2022-11-15T00:08:36;3.00;99.90
26037;DHT22;13810;48.376;10.944;2022-11-15T00:09:06;3.00;99.90
26037;DHT22;13810;48.376;10.944;2022-11-15T00:09:37;3.00;99.90
26037;DHT22;13810;48.376;10.944;2022-11-15T00:10:08;3.00;99.90
26037;DHT22;13810;48.376;10.944;2022-11-15T00:10:38;3.00;99.90
26037;DHT22;13810;48.376;10.944;2022-11-15T00:11:10;3.00;99.90
26037;DHT22;13810;48.376;10.944;2022-11-15T00:11:41;3.00;99.90
26037;DHT22;13810;48.376;10.944;2022-11-15T00:12:12;2.90;99.90
26037;DHT22;13810;48.376;10.944;2022-11-15T00:12:43;3.00;99.90
26037;DHT22;13810;48.376;10.944;2022-11-15T00:13:13;2.90;99.90
26037;DHT22;13810;48.376;10.944;2022-11-15T00:13:44;2.90;99.90
26037;DHT22;13810;48.376;10.944;2022-11-15T00:14:14;2.90;99.90
26037;DHT22;13810;48.376;10.944;2022-11-15T00:14:45;2.90;99.90
26037;DHT22;13810;48.376;10.944;2022-11-15T00:15:16;2.90;99.90
26037;DHT22;13810;48.376;10.944;2022-11-15T00:15:46;2.90;99.90
26037;DHT22;13810;48.376;10.944;2022-11-15T00:16:17;2.90;99.90
26037;DHT22;13810;48.376;10.944;2022-11-15T00:16:48;2.90;99.90
26037;DHT22;13810;48.376;10.944;2022-11-15T00:17:18;2.90;99.90
26037;DHT22;13810;48.376;10.944;2022-11-15T00:17:49;2.90;99.90
26037;DHT22;13810;48.376;10.944;2022-11-15T00:18:20;2.80;99.90
26037;DHT22;13810;48.376;10.944;2022-11-15T00:18:50;2.80;99.90
26037;DHT22;13810;48.376;10.944;2022-11-15T00:19:21;2.80;99.90
26037;DHT22;13810;48.376;10.944;2022-11-15T00:19:52;2.80;99.90
26037;DHT22;13810;48.376;10.944;2022-11-15T00:20:23;2.80;99.90
26037;DHT22;13810;48.376;10.944;2022-11-15T00:20:53;2.80;99.90
26037;DHT22;13810;48.376;10.944;2022-11-15T00:21:24;2.80;99.90
26037;DHT22;13810;48.376;10.944;2022-11-15T00:21:55;2.80;99.90
26037;DHT22;13810;48.376;10.944;2022-11-15T00:22:31;2.80;99.90
26037;DHT22;13810;48.376;10.944;2022-11-15T00:23:05;2.80;99.90
26037;DHT22;13810;48.376;10.944;2022-11-15T00:23:36;2.80;99.90
26037;DHT22;13810;48.376;10.944;2022-11-15T00:24:07;2.80;99.90
26037;DHT22;13810;48.376;10.944;2022-11-15T00:24:38;2.80;99.90
26037;DHT22;13810;48.376;10.944;2022-11-15T00:25:09;2.80;99.90
26037;DHT22;13810;48.376;10.944;2022-11-15T00:25:39;2.80;99.90
26037;DHT22;13810;48.376;10.944;2022-11-15T00:26:12;2.80;99.90
26037;DHT22;13810;48.376;10.944;2022-11-15T00:26:46;2.80;99.90
26037;DHT22;13810;48.376;10.944;2022-11-15T00:27:17;2.80;99.90
26037;DHT22;13810;48.376;10.944;2022-11-15T00:27:47;2.80;99.90
26037;DHT22;13810;48.376;10.944;2022-11-15T00:28:18;2.80;99.90
26037;DHT22;13810;48.376;10.944;2022-11-15T00:28:52;2.80;99.90
26037;DHT22;13810;48.376;10.944;2022-11-15T00:29:23;2.70;99.90
26037;DHT22;13810;48.376;10.944;2022-11-15T00:29:53;2.70;99.90
26037;DHT22;13810;48.376;10.944;2022-11-15T00:30:24;2.70;99.90
26037;DHT22;13810;48.376;10.944;2022-11-15T00:31:03;2.70;99.90
26037;DHT22;13810;48.376;10.944;2022-11-15T00:31:34;2.70;99.90
26037;DHT22;13810;48.376;10.944;2022-11-15T00:32:05;2.70;99.90
26037;DHT22;13810;48.376;10.944;2022-11-15T00:32:35;2.60;99.90
26037;DHT22;13810;48.376;10.944;2022-11-15T00:33:06;2.60;99.90
26037;DHT22;13810;48.376;10.944;2022-11-15T00:33:37;2.60;99.90
26037;DHT22;13810;48.376;10.944;2022-11-15T00:34:09;2.60;99.90
26037;DHT22;13810;48.376;10.944;2022-11-15T00:34:40;2.60;99.90
26037;DHT22;13810;48.376;10.944;2022-11-15T00:35:11;2.60;99.90
26037;DHT22;13810;48.376;10.944;2022-11-15T00:35:41;2.50;99.90
26037;DHT22;13810;48.376;10.944;2022-11-15T00:36:12;2.50;99.90
26037;DHT22;13810;48.376;10.944;2022-11-15T00:36:43;2.50;99.90
26037;DHT22;13810;48.376;10.944;2022-11-15T00:37:14;2.50;99.90
26037;DHT22;13810;48.376;10.944;2022-11-15T00:37:44;2.50;99.90
26037;DHT22;13810;48.376;10.944;2022-11-15T00:38:16;2.50;99.90
26037;DHT22;13810;48.376;10.944;2022-11-15T00:38:47;2.50;99.90
26037;DHT22;13810;48.376;10.944;2022-11-15T00:39:18;2.60;99.90
26037;DHT22;13810;48.376;10.944;2022-11-15T00:39:48;2.60;99.90
26037;DHT22;13810;48.376;10.944;2022-11-15T00:40:19;2.60;99.90
26037;DHT22;13810;48.376;10.944;2022-11-15T00:40:50;2.60;99.90
26037;DHT22;13810;48.376;10.944;2022-11-15T00:41:20;2.60;99.90
26037;DHT22;13810;48.376;10.944;2022-11-15T00:41:51;2.60;99.90
26037;DHT22;13810;48.376;10.944;2022-11-15T00:42:21;2.60;99.90
26037;DHT22;13810;48.376;10.944;2022-11-15T00:42:52;2.60;99.90
26037;DHT22;13810;48.376;10.944;2022-11-15T00:43:23;2.60;99.90
26037;DHT22;13810;48.376;10.944;2022-11-15T00:43:53;2.60;99.90
26037;DHT22;13810;48.376;10.944;2022-11-15T00:44:24;2.60;99.90
26037;DHT22;13810;48.376;10.944;2022-11-15T00:44:55;2.60;99.90
26037;DHT22;13810;48.376;10.944;2022-11-15T00:45:25;2.60;99.90
26037;DHT22;13810;48.376;10.944;2022-11-15T00:45:56;2.60;99.90
26037;DHT22;13810;48.376;10.944;2022-11-15T00:46:27;2.60;99.90
26037;DHT22;13810;48.376;10.944;2022-11-15T00:46:58;2.60;99.90
26037;DHT22;13810;48.376;10.944;2022-11-15T00:47:28;2.60;99.90
26037;DHT22;13810;48.376;10.944;2022-11-15T00:47:59;2.60;99.90
26037;DHT22;13810;48.376;10.944;2022-11-15T00:48:30;2.60;99.90
26037;DHT22;13810;48.376;10.944;2022-11-15T00:49:01;2.60;99.90
26037;DHT22;13810;48.376;10.944;2022-11-15T00:49:32;2.60;99.90
26037;DHT22;13810;48.376;10.944;2022-11-15T00:50:03;2.60;99.90
26037;DHT22;13810;48.376;10.944;2022-11-15T00:50:34;2.60;99.90
26037;DHT22;13810;48.376;10.944;2022-11-15T00:51:05;2.60;99.90
26037;DHT22;13810;48.376;10.944;2022-11-15T00:51:36;2.60;99.90
26037;DHT22;13810;48.376;10.944;2022-11-15T00:52:06;2.60;99.90
26037;DHT22;13810;48.376;10.944;2022-11-15T00:52:37;2.60;99.90
26037;DHT22;13810;48.376;10.944;2022-11-15T00:53:08;2.60;99.90
26037;DHT22;13810;48.376;10.944;2022-11-15T00:53:38;2.60;99.90
26037;DHT22;13810;48.376;10.944;2022-11-15T00:54:09;2.60;99.90
26037;DHT22;13810;48.376;10.944;2022-11-15T00:54:40;2.60;99.90
26037;DHT22;13810;48.376;10.944;2022-11-15T00:55:15;2.60;99.90
26037;DHT22;13810;48.376;10.944;2022-11-15T00:55:46;2.60;99.90
26037;DHT22;13810;48.376;10.944;2022-11-15T00:56:17;2.60;99.90
26037;DHT22;13810;48.376;10.944;2022-11-15T00:56:47;2.60;99.90
26037;DHT22;13810;48.376;10.944;2022-11-15T00:57:18;2.60;99.90
26037;DHT22;13810;48.376;10.944;2022-11-15T00:57:49;2.60;99.90
26037;DHT22;13810;48.376;10.944;2022-11-15T00:58:19;2.60;99.90
26037;DHT22;13810;48.376;10.944;2022-11-15T00:58:50;2.60;99.90
26037;DHT22;13810;48.376;10.944;2022-11-15T00:59:21;2.60;99.90
26037;DHT22;13810;48.376;10.944;2022-11-15T00:59:51;2.60;99.90
26037;DHT22;13810;48.376;10.944;2022-11-15T01:00:22;2.60;99.90
26037;DHT22;13810;48.376;10.944;2022-11-15T01:00:53;2.60;99.90
26037;DHT22;13810;48.376;10.944;2022-11-15T01:01:25;2.60;99.90
26037;DHT22;13810;48.376;10.944;2022-11-15T01:01:55;2.60;99.90
26037;DHT22;13810;48.376;10.944;2022-11-15T01:02:26;2.60;99.90
26037;DHT22;13810;48.376;10.944;2022-11-15T01:02:59;2.60;99.90
26037;DHT22;13810;48.376;10.944;2022-11-15T01:03:32;2.60;99.90
26037;DHT22;13810;48.376;10.944;2022-11-15T01:04:03;2.60;99.90
26037;DHT22;13810;48.376;10.944;2022-11-15T01:04:34;2.60;99.90
26037;DHT22;13810;48.376;10.944;2022-11-15T01:05:05;2.60;99.90
26037;DHT22;13810;48.376;10.944;2022-11-15T01:05:39;2.50;99.90
26037;DHT22;13810;48.376;10.944;2022-11-15T01:06:10;2.60;99.90
26037;DHT22;13810;48.376;10.944;2022-11-15T01:06:42;2.50;99.90
26037;DHT22;13810;48.376;10.944;2022-11-15T01:07:12;2.50;99.90
26037;DHT22;13810;48.376;10.944;2022-11-15T01:07:43;2.50;99.90
26037;DHT22;13810;48.376;10.944;2022-11-15T01:08:15;2.50;99.90
26037;DHT22;13810;48.376;10.944;2022-11-15T01:08:46;2.60;99.90
26037;DHT22;13810;48.376;10.944;2022-11-15T01:09:16;2.50;99.90
26037;DHT22;13810;48.376;10.944;2022-11-15T01:10:45;2.50;99.90
26037;DHT22;13810;48.376;10.944;2022-11-15T01:11:15;2.50;99.90
26037;DHT22;13810;48.376;10.944;2022-11-15T01:11:46;2.50;99.90
26037;DHT22;13810;48.376;10.944;2022-11-15T01:12:17;2.50;99.90
26037;DHT22;13810;48.376;10.944;2022-11-15T01:12:48;2.50;99.90
26037;DHT22;13810;48.376;10.944;2022-11-15T01:13:19;2.50;99.90
26037;DHT22;13810;48.376;10.944;2022-11-15T01:13:49;2.50;99.90
26037;DHT22;13810;48.376;10.944;2022-11-15T01:14:20;2.50;99.90
26037;DHT22;13810;48.376;10.944;2022-11-15T01:14:51;2.50;99.90
26037;DHT22;13810;48.376;10.944;2022-11-15T01:15:21;2.50;99.90
26037;DHT22;13810;48.376;10.944;2022-11-15T01:15:52;2.40;99.90
26037;DHT22;13810;48.376;10.944;2022-11-15T01:16:23;2.50;99.90
26037;DHT22;13810;48.376;10.944;2022-11-15T01:16:53;2.50;99.90
26037;DHT22;13810;48.376;10.944;2022-11-15T01:17:24;2.40;99.90
26037;DHT22;13810;48.376;10.944;2022-11-15T01:17:55;2.40;99.90
26037;DHT22;13810;48.376;10.944;2022-11-15T01:18:26;2.40;99.90
26037;DHT22;13810;48.376;10.944;2022-11-15T01:18:56;2.40;99.90
26037;DHT22;13810;48.376;10.944;2022-11-15T01:19:27;2.40;99.90
26037;DHT22;13810;48.376;10.944;2022-11-15T01:19:57;2.40;99.90
26037;DHT22;13810;48.376;10.944;2022-11-15T01:20:28;2.40;99.90
26037;DHT22;13810;48.376;10.944;2022-11-15T01:20:59;2.40;99.90
26037;DHT22;13810;48.376;10.944;2022-11-15T01:21:30;2.40;99.90
26037;DHT22;13810;48.376;10.944;2022-11-15T01:22:00;2.40;99.90
26037;DHT22;13810;48.376;10.944;2022-11-15T01:22:31;2.40;99.90
26037;DHT22;13810;48.376;10.944;2022-11-15T01:23:02;2.40;99.90
26037;DHT22;13810;48.376;10.944;2022-11-15T01:23:32;2.40;99.90
26037;DHT22;13810;48.376;10.944;2022-11-15T01:24:03;2.40;99.90
26037;DHT22;13810;48.376;10.944;2022-11-15T01:24:34;2.40;99.90
26037;DHT22;13810;48.376;10.944;2022-11-15T01:25:05;2.40;99.90
26037;DHT22;13810;48.376;10.944;2022-11-15T01:25:36;2.40;99.90
26037;DHT22;13810;48.376;10.944;2022-11-15T01:26:09;2.40;99.90
26037;DHT22;13810;48.376;10.944;2022-11-15T01:26:40;2.40;99.90
26037;DHT22;13810;48.376;10.944;2022-11-15T01:27:11;2.40;99.90
26037;DHT22;13810;48.376;10.944;2022-11-15T01:27:41;2.40;99.90
26037;DHT22;13810;48.376;10.944;2022-11-15T01:28:12;2.40;99.90
26037;DHT22;13810;48.376;10.944;2022-11-15T01:28:43;2.40;99.90
26037;DHT22;13810;48.376;10.944;2022-11-15T01:29:13;2.40;99.90
26037;DHT22;13810;48.376;10.944;2022-11-15T01:29:44;2.30;99.90
26037;DHT22;13810;48.376;10.944;2022-11-15T01:30:15;2.40;99.90
26037;DHT22;13810;48.376;10.944;2022-11-15T01:30:46;2.40;99.90
26037;DHT22;13810;48.376;10.944;2022-11-15T01:31:19;2.40;99.90
26037;DHT22;13810;48.376;10.944;2022-11-15T01:31:50;2.40;99.90
26037;DHT22;13810;48.376;10.944;2022-11-15T01:32:23;2.30;99.90
26037;DHT22;13810;48.376;10.944;2022-11-15T01:32:53;2.40;99.90
26037;DHT22;13810;48.376;10.944;2022-11-15T01:33:24;2.40;99.90
26037;DHT22;13810;48.376;10.944;2022-11-15T01:33:54;2.40;99.90
26037;DHT22;13810;48.376;10.944;2022-11-15T01:34:25;2.40;99.90
26037;DHT22;13810;48.376;10.944;2022-11-15T01:34:56;2.40;99.90
26037;DHT22;13810;48.376;10.944;2022-11-15T01:35:26;2.40;99.90
26037;DHT22;13810;48.376;10.944;2022-11-15T01:35:57;2.40;99.90
26037;DHT22;13810;48.376;10.944;2022-11-15T01:36:28;2.40;99.90
26037;DHT22;13810;48.376;10.944;2022-11-15T01:36:58;2.40;99.90
26037;DHT22;13810;48.376;10.944;2022-11-15T01:37:29;2.40;99.90
26037;DHT22;13810;48.376;10.944;2022-11-15T01:38:00;2.40;99.90
26037;DHT22;13810;48.376;10.944;2022-11-15T01:38:30;2.40;99.90
26037;DHT22;13810;48.376;10.944;2022-11-15T01:39:01;2.40;99.90
26037;DHT22;13810;48.376;10.944;2022-11-15T01:39:32;2.40;99.90
26037;DHT22;13810;48.376;10.944;2022-11-15T01:40:03;2.40;99.90
26037;DHT22;13810;48.376;10.944;2022-11-15T01:40:34;2.40;99.90
26037;DHT22;13810;48.376;10.944;2022-11-15T01:41:05;2.40;99.90
26037;DHT22;13810;48.376;10.944;2022-11-15T01:41:36;2.40;99.90
26037;DHT22;13810;48.376;10.944;2022-11-15T01:42:12;2.40;99.90
26037;DHT22;13810;48.376;10.944;2022-11-15T01:42:42;2.40;99.90
26037;DHT22;13810;48.376;10.944;2022-11-15T01:43:39;2.50;99.90
26037;DHT22;13810;48.376;10.944;2022-11-15T01:44:59;2.40;99.90
26037;DHT22;13810;48.376;10.944;2022-11-15T01:45:30;2.50;99.90
26037;DHT22;13810;48.376;10.944;2022-11-15T01:46:52;2.50;99.90
26037;DHT22;13810;48.376;10.944;2022-11-15T01:47:32;2.40;99.90
26037;DHT22;13810;48.376;10.944;2022-11-15T01:48:04;2.40;99.90
26037;DHT22;13810;48.376;10.944;2022-11-15T01:48:35;2.40;99.90
26037;DHT22;13810;48.376;10.944;2022-11-15T01:49:13;2.40;99.90
26037;DHT22;13810;48.376;10.944;2022-11-15T01:50:02;2.40;99.90
26037;DHT22;13810;48.376;10.944;2022-11-15T01:50:33;2.40;99.90
26037;DHT22;13810;48.376;10.944;2022-11-15T01:51:07;2.40;99.90
26037;DHT22;13810;48.376;10.944;2022-11-15T01:51:40;2.40;99.90
26037;DHT22;13810;48.376;10.944;2022-11-15T01:52:14;2.40;99.90
26037;DHT22;13810;48.376;10.944;2022-11-15T01:52:45;2.30;99.90
26037;DHT22;13810;48.376;10.944;2022-11-15T01:53:17;2.30;99.90
26037;DHT22;13810;48.376;10.944;2022-11-15T01:53:52;2.30;99.90
26037;DHT22;13810;48.376;10.944;2022-11-15T01:54:25;2.40;99.90
26037;DHT22;13810;48.376;10.944;2022-11-15T01:55:02;2.40;99.90
26037;DHT22;13810;48.376;10.944;2022-11-15T01:55:34;2.40;99.90
26037;DHT22;13810;48.376;10.944;2022-11-15T01:56:07;2.40;99.90
26037;DHT22;13810;48.376;10.944;2022-11-15T01:56:46;2.40;99.90
26037;DHT22;13810;48.376;10.944;2022-11-15T01:57:18;2.30;99.90
26037;DHT22;13810;48.376;10.944;2022-11-15T01:57:53;2.30;99.90
26037;DHT22;13810;48.376;10.944;2022-11-15T01:58:25;2.30;99.90
26037;DHT22;13810;48.376;10.944;2022-11-15T01:58:58;2.30;99.90
26037;DHT22;13810;48.376;10.944;2022-11-15T01:59:29;2.30;99.90
26037;DHT22;13810;48.376;10.944;2022-11-15T02:00:01;2.30;99.90
26037;DHT22;13810;48.376;10.944;2022-11-15T02:00:33;2.30;99.90
26037;DHT22;13810;48.376;10.944;2022-11-15T02:01:04;2.30;99.90
26037;DHT22;13810;48.376;10.944;2022-11-15T02:01:35;2.20;99.90
26037;DHT22;13810;48.376;10.944;2022-11-15T02:02:06;2.20;99.90
26037;DHT22;13810;48.376;10.944;2022-11-15T02:02:37;2.20;99.90
26037;DHT22;13810;48.376;10.944;2022-11-15T02:03:08;2.30;99.90
26037;DHT22;13810;48.376;10.944;2022-11-15T02:03:51;2.30;99.90
26037;DHT22;13810;48.376;10.944;2022-11-15T02:04:25;2.30;99.90
26037;DHT22;13810;48.376;10.944;2022-11-15T02:04:57;2.30;99.90
26037;DHT22;13810;48.376;10.944;2022-11-15T02:05:29;2.30;99.90
26037;DHT22;13810;48.376;10.944;2022-11-15T02:06:01;2.30;99.90
26037;DHT22;13810;48.376;10.944;2022-11-15T02:06:32;2.30;99.90
26037;DHT22;13810;48.376;10.944;2022-11-15T02:07:04;2.20;99.90
26037;DHT22;13810;48.376;10.944;2022-11-15T02:07:35;2.30;99.90
26037;DHT22;13810;48.376;10.944;2022-11-15T02:08:06;2.20;99.90
26037;DHT22;13810;48.376;10.944;2022-11-15T02:08:38;2.20;99.90
26037;DHT22;13810;48.376;10.944;2022-11-15T02:09:10;2.20;99.90
26037;DHT22;13810;48.376;10.944;2022-11-15T02:09:41;2.20;99.90
26037;DHT22;13810;48.376;10.944;2022-11-15T02:10:17;2.20;99.90
26037;DHT22;13810;48.376;10.944;2022-11-15T02:10:48;2.10;99.90
26037;DHT22;13810;48.376;10.944;2022-11-15T02:11:19;2.10;99.90
26037;DHT22;13810;48.376;10.944;2022-11-15T02:11:50;2.10;99.90
26037;DHT22;13810;48.376;10.944;2022-11-15T02:12:22;2.10;99.90
26037;DHT22;13810;48.376;10.944;2022-11-15T02:12:54;2.10;99.90
26037;DHT22;13810;48.376;10.944;2022-11-15T02:13:26;2.00;99.90
26037;DHT22;13810;48.376;10.944;2022-11-15T02:13:58;2.00;99.90
26037;DHT22;13810;48.376;10.944;2022-11-15T02:14:30;1.90;99.90
26037;DHT22;13810;48.376;10.944;2022-11-15T02:15:02;1.90;99.90
26037;DHT22;13810;48.376;10.944;2022-11-15T02:15:42;1.80;99.90
26037;DHT22;13810;48.376;10.944;2022-11-15T02:17:37;1.80;99.90
26037;DHT22;13810;48.376;10.944;2022-11-15T02:18:37;1.70;99.90
26037;DHT22;13810;48.376;10.944;2022-11-15T02:21:21;1.60;99.90
26037;DHT22;13810;48.376;10.944;2022-11-15T02:22:03;1.60;99.90
26037;DHT22;13810;48.376;10.944;2022-11-15T02:24:40;1.60;99.90
26037;DHT22;13810;48.376;10.944;2022-11-15T02:29:07;1.60;99.90
26037;DHT22;13810;48.376;10.944;2022-11-15T02:32:01;1.60;99.90
26037;DHT22;13810;48.376;10.944;2022-11-15T02:32:50;1.60;99.90
26037;DHT22;13810;48.376;10.944;2022-11-15T02:33:53;1.60;99.90
26037;DHT22;13810;48.376;10.944;2022-11-15T02:36:07;1.50;99.90
26037;DHT22;13810;48.376;10.944;2022-11-15T02:36:42;1.50;99.90
26037;DHT22;13810;48.376;10.944;2022-11-15T02:37:19;1.50;99.90
26037;DHT22;13810;48.376;10.944;2022-11-15T02:37:58;1.40;99.90
26037;DHT22;13810;48.376;10.944;2022-11-15T02:38:40;1.50;99.90
26037;DHT22;13810;48.376;10.944;2022-11-15T02:39:23;1.40;99.90
26037;DHT22;13810;48.376;10.944;2022-11-15T02:39:59;1.40;99.90
26037;DHT22;13810;48.376;10.944;2022-11-15T02:41:00;1.40;99.90
26037;DHT22;13810;48.376;10.944;2022-11-15T02:42:36;1.40;99.90
26037;DHT22;13810;48.376;10.944;2022-11-15T02:43:40;1.40;99.90
26037;DHT22;13810;48.376;10.944;2022-11-15T02:44:39;1.40;99.90
26037;DHT22;13810;48.376;10.944;2022-11-15T02:45:16;1.40;99.90
26037;DHT22;13810;48.376;10.944;2022-11-15T02:45:53;1.40;99.90
26037;DHT22;13810;48.376;10.944;2022-11-15T02:47:27;1.30;99.90
26037;DHT22;13810;48.376;10.944;2022-11-15T02:47:59;1.30;99.90
26037;DHT22;13810;48.376;10.944;2022-11-15T02:48:31;1.30;99.90
26037;DHT22;13810;48.376;10.944;2022-11-15T02:49:02;1.30;99.90
26037;DHT22;13810;48.376;10.944;2022-11-15T02:49:34;1.30;99.90
26037;DHT22;13810;48.376;10.944;2022-11-15T02:50:10;1.30;99.90
26037;DHT22;13810;48.376;10.944;2022-11-15T02:50:42;1.30;99.90
26037;DHT22;13810;48.376;10.944;2022-11-15T02:51:13;1.30;99.90
26037;DHT22;13810;48.376;10.944;2022-11-15T02:51:47;1.30;99.90
26037;DHT22;13810;48.376;10.944;2022-11-15T02:52:23;1.30;99.90
26037;DHT22;13810;48.376;10.944;2022-11-15T02:52:56;1.30;99.90
26037;DHT22;13810;48.376;10.944;2022-11-15T02:53:27;1.30;99.90
26037;DHT22;13810;48.376;10.944;2022-11-15T02:53:58;1.30;99.90
26037;DHT22;13810;48.376;10.944;2022-11-15T02:54:31;1.30;99.90
26037;DHT22;13810;48.376;10.944;2022-11-15T02:55:02;1.30;99.90
26037;DHT22;13810;48.376;10.944;2022-11-15T02:55:36;1.40;99.90
26037;DHT22;13810;48.376;10.944;2022-11-15T02:56:09;1.30;99.90
26037;DHT22;13810;48.376;10.944;2022-11-15T02:56:43;1.40;99.90
26037;DHT22;13810;48.376;10.944;2022-11-15T02:57:17;1.40;99.90
26037;DHT22;13810;48.376;10.944;2022-11-15T03:00:07;1.50;99.90
26037;DHT22;13810;48.376;10.944;2022-11-15T03:01:29;1.50;99.90
26037;DHT22;13810;48.376;10.944;2022-11-15T03:01:58;1.50;99.90
26037;DHT22;13810;48.376;10.944;2022-11-15T03:03:30;1.50;99.90
26037;DHT22;13810;48.376;10.944;2022-11-15T03:05:52;1.50;99.90
26037;DHT22;13810;48.376;10.944;2022-11-15T03:09:30;1.50;99.90
26037;DHT22;13810;48.376;10.944;2022-11-15T03:10:09;1.50;99.90
26037;DHT22;13810;48.376;10.944;2022-11-15T03:10:46;1.50;99.90
26037;DHT22;13810;48.376;10.944;2022-11-15T03:11:21;1.50;99.90
26037;DHT22;13810;48.376;10.944;2022-11-15T03:12:04;1.50;99.90
26037;DHT22;13810;48.376;10.944;2022-11-15T03:12:46;1.50;99.90
26037;DHT22;13810;48.376;10.944;2022-11-15T03:14:36;1.40;99.90
26037;DHT22;13810;48.376;10.944;2022-11-15T03:17:37;1.50;99.90
26037;DHT22;13810;48.376;10.944;2022-11-15T03:18:33;1.40;99.90
26037;DHT22;13810;48.376;10.944;2022-11-15T03:19:23;1.50;99.90
26037;DHT22;13810;48.376;10.944;2022-11-15T03:20:00;1.50;99.90
26037;DHT22;13810;48.376;10.944;2022-11-15T03:20:31;1.50;99.90
26037;DHT22;13810;48.376;10.944;2022-11-15T03:21:06;1.50;99.90
26037;DHT22;13810;48.376;10.944;2022-11-15T03:21:39;1.50;99.90
26037;DHT22;13810;48.376;10.944;2022-11-15T03:22:14;1.50;99.90
26037;DHT22;13810;48.376;10.944;2022-11-15T03:22:47;1.40;99.90
26037;DHT22;13810;48.376;10.944;2022-11-15T03:23:18;1.40;99.90
26037;DHT22;13810;48.376;10.944;2022-11-15T03:23:50;1.40;99.90
26037;DHT22;13810;48.376;10.944;2022-11-15T03:24:24;1.40;99.90
26037;DHT22;13810;48.376;10.944;2022-11-15T03:25:02;1.40;99.90
26037;DHT22;13810;48.376;10.944;2022-11-15T03:25:34;1.40;99.90
26037;DHT22;13810;48.376;10.944;2022-11-15T03:26:11;1.40;99.90
26037;DHT22;13810;48.376;10.944;2022-11-15T03:26:44;1.40;99.90
26037;DHT22;13810;48.376;10.944;2022-11-15T03:27:19;1.40;99.90
26037;DHT22;13810;48.376;10.944;2022-11-15T03:27:55;1.40;99.90
26037;DHT22;13810;48.376;10.944;2022-11-15T03:28:36;1.40;99.90
26037;DHT22;13810;48.376;10.944;2022-11-15T03:29:22;1.40;99.90
26037;DHT22;13810;48.376;10.944;2022-11-15T03:30:02;1.40;99.90
26037;DHT22;13810;48.376;10.944;2022-11-15T03:30:36;1.40;99.90
26037;DHT22;13810;48.376;10.944;2022-11-15T03:31:09;1.40;99.90
26037;DHT22;13810;48.376;10.944;2022-11-15T03:32:05;1.40;99.90
26037;DHT22;13810;48.376;10.944;2022-11-15T03:32:57;1.30;99.90
26037;DHT22;13810;48.376;10.944;2022-11-15T03:33:29;1.30;99.90
26037;DHT22;13810;48.376;10.944;2022-11-15T03:34:03;1.30;99.90
26037;DHT22;13810;48.376;10.944;2022-11-15T03:35:09;1.40;99.90
26037;DHT22;13810;48.376;10.944;2022-11-15T03:35:43;1.30;99.90
26037;DHT22;13810;48.376;10.944;2022-11-15T03:36:15;1.30;99.90
26037;DHT22;13810;48.376;10.944;2022-11-15T03:36:47;1.30;99.90
26037;DHT22;13810;48.376;10.944;2022-11-15T03:37:23;1.30;99.90
26037;DHT22;13810;48.376;10.944;2022-11-15T03:38:34;1.30;99.90
26037;DHT22;13810;48.376;10.944;2022-11-15T03:39:07;1.30;99.90
26037;DHT22;13810;48.376;10.944;2022-11-15T03:39:39;1.30;99.90
26037;DHT22;13810;48.376;10.944;2022-11-15T03:40:10;1.30;99.90
26037;DHT22;13810;48.376;10.944;2022-11-15T03:40:42;1.30;99.90
26037;DHT22;13810;48.376;10.944;2022-11-15T03:41:24;1.30;99.90
26037;DHT22;13810;48.376;10.944;2022-11-15T03:43:56;1.30;99.90
26037;DHT22;13810;48.376;10.944;2022-11-15T03:45:39;1.30;99.90
26037;DHT22;13810;48.376;10.944;2022-11-15T03:46:14;1.40;99.90
26037;DHT22;13810;48.376;10.944;2022-11-15T03:47:34;1.40;99.90
26037;DHT22;13810;48.376;10.944;2022-11-15T03:48:21;1.40;99.90
26037;DHT22;13810;48.376;10.944;2022-11-15T03:48:55;1.40;99.90
26037;DHT22;13810;48.376;10.944;2022-11-15T03:50:30;1.40;99.90
26037;DHT22;13810;48.376;10.944;2022-11-15T03:51:02;1.40;99.90
26037;DHT22;13810;48.376;10.944;2022-11-15T03:51:33;1.40;99.90
26037;DHT22;13810;48.376;10.944;2022-11-15T03:52:05;1.40;99.90
26037;DHT22;13810;48.376;10.944;2022-11-15T03:52:36;1.40;99.90
26037;DHT22;13810;48.376;10.944;2022-11-15T03:53:07;1.40;99.90
26037;DHT22;13810;48.376;10.944;2022-11-15T03:53:38;1.30;99.90
26037;DHT22;13810;48.376;10.944;2022-11-15T03:54:12;1.40;99.90
26037;DHT22;13810;48.376;10.944;2022-11-15T03:54:52;1.40;99.90
26037;DHT22;13810;48.376;10.944;2022-11-15T03:55:23;1.30;99.90
26037;DHT22;13810;48.376;10.944;2022-11-15T03:55:53;1.40;99.90
26037;DHT22;13810;48.376;10.944;2022-11-15T03:56:24;1.40;99.90
26037;DHT22;13810;48.376;10.944;2022-11-15T03:56:55;1.40;99.90
26037;DHT22;13810;48.376;10.944;2022-11-15T03:57:26;1.30;99.90
26037;DHT22;13810;48.376;10.944;2022-11-15T03:57:59;1.30;99.90
26037;DHT22;13810;48.376;10.944;2022-11-15T03:58:30;1.40;99.90
26037;DHT22;13810;48.376;10.944;2022-11-15T03:59:00;1.40;99.90
26037;DHT22;13810;48.376;10.944;2022-11-15T03:59:31;1.40;99.90
26037;DHT22;13810;48.376;10.944;2022-11-15T04:00:03;1.30;99.90
26037;DHT22;13810;48.376;10.944;2022-11-15T04:00:34;1.40;99.90
26037;DHT22;13810;48.376;10.944;2022-11-15T04:01:05;1.40;99.90
26037;DHT22;13810;48.376;10.944;2022-11-15T04:01:36;1.40;99.90
26037;DHT22;13810;48.376;10.944;2022-11-15T04:02:06;1.40;99.90
26037;DHT22;13810;48.376;10.944;2022-11-15T04:02:37;1.40;99.90
26037;DHT22;13810;48.376;10.944;2022-11-15T04:03:08;1.40;99.90
26037;DHT22;13810;48.376;10.944;2022-11-15T04:03:38;1.40;99.90
26037;DHT22;13810;48.376;10.944;2022-11-15T04:04:09;1.40;99.90
26037;DHT22;13810;48.376;10.944;2022-11-15T04:04:40;1.40;99.90
26037;DHT22;13810;48.376;10.944;2022-11-15T04:05:11;1.40;99.90